Vernon, California
Current Conditions -  °F | °C
As of 7:47 PM on Wednesday 28 Jan 2015 (Local Time) from KCQT Reporting Station
Clear Clear  
Wind Chill: 67°   Ceiling: Unl
Heat Index: 67°   Visibility: 10mi
Dew Point: 51°   Wind: 0mph
Humidity: 57%   Direction: NA
Pressure: 30.07"   Gusts: NA
Location:  34.0012°N, 118.221°W
Report Text: KCQT 290347Z AUTO 00000KT 10SM CLR 19/11 A3007 RMK AO2 SLP183 T01940106 $
Loading
Personal Weather Stations






























Interactive Weather Map New forecast layout! Learn more

10-Day Weather Forecast

Advertisements
Track Severe Weather on mobile